sensor_id;sensor_type;location;lat;lon;timestamp;P1;durP1;ratioP1;P2;durP2;ratioP2
60665;SDS011;59128;44.642;21.188;2023-03-11T00:00:14;35.85;;;27.30;;
60665;SDS011;59128;44.642;21.188;2023-03-11T00:02:43;39.60;;;29.00;;
60665;SDS011;59128;44.642;21.188;2023-03-11T00:05:11;38.55;;;28.48;;
60665;SDS011;59128;44.642;21.188;2023-03-11T00:07:38;46.10;;;32.33;;
60665;SDS011;59128;44.642;21.188;2023-03-11T00:10:05;44.83;;;32.90;;
60665;SDS011;59128;44.642;21.188;2023-03-11T00:12:31;40.55;;;30.00;;
60665;SDS011;59128;44.642;21.188;2023-03-11T00:14:57;40.45;;;28.55;;
60665;SDS011;59128;44.642;21.188;2023-03-11T00:17:23;38.33;;;28.15;;
60665;SDS011;59128;44.642;21.188;2023-03-11T00:19:49;33.88;;;26.48;;
60665;SDS011;59128;44.642;21.188;2023-03-11T00:22:15;35.17;;;27.08;;
60665;SDS011;59128;44.642;21.188;2023-03-11T00:24:41;39.90;;;28.83;;
60665;SDS011;59128;44.642;21.188;2023-03-11T00:27:07;43.00;;;29.75;;
60665;SDS011;59128;44.642;21.188;2023-03-11T00:29:33;45.28;;;32.58;;
60665;SDS011;59128;44.642;21.188;2023-03-11T00:31:59;54.83;;;37.38;;
60665;SDS011;59128;44.642;21.188;2023-03-11T00:34:25;54.75;;;38.55;;
60665;SDS011;59128;44.642;21.188;2023-03-11T00:36:51;53.60;;;37.53;;
60665;SDS011;59128;44.642;21.188;2023-03-11T00:39:17;55.08;;;37.55;;
60665;SDS011;59128;44.642;21.188;2023-03-11T00:41:43;49.75;;;33.67;;
60665;SDS011;59128;44.642;21.188;2023-03-11T00:44:09;50.40;;;31.15;;
60665;SDS011;59128;44.642;21.188;2023-03-11T00:46:36;44.92;;;30.15;;
60665;SDS011;59128;44.642;21.188;2023-03-11T00:49:02;40.42;;;29.15;;
60665;SDS011;59128;44.642;21.188;2023-03-11T00:51:28;35.08;;;26.58;;
60665;SDS011;59128;44.642;21.188;2023-03-11T00:53:54;32.03;;;22.83;;
60665;SDS011;59128;44.642;21.188;2023-03-11T00:56:20;25.92;;;20.50;;
60665;SDS011;59128;44.642;21.188;2023-03-11T00:58:46;30.27;;;23.55;;
60665;SDS011;59128;44.642;21.188;2023-03-11T01:01:14;27.23;;;21.85;;
60665;SDS011;59128;44.642;21.188;2023-03-11T01:03:40;31.55;;;23.20;;
60665;SDS011;59128;44.642;21.188;2023-03-11T01:06:06;31.50;;;22.90;;
60665;SDS011;59128;44.642;21.188;2023-03-11T01:08:33;34.20;;;25.00;;
60665;SDS011;59128;44.642;21.188;2023-03-11T01:10:59;39.00;;;26.45;;
60665;SDS011;59128;44.642;21.188;2023-03-11T01:13:25;45.78;;;29.92;;
60665;SDS011;59128;44.642;21.188;2023-03-11T01:15:52;40.08;;;25.73;;
60665;SDS011;59128;44.642;21.188;2023-03-11T01:18:18;28.10;;;20.73;;
60665;SDS011;59128;44.642;21.188;2023-03-11T01:20:44;25.77;;;19.25;;
60665;SDS011;59128;44.642;21.188;2023-03-11T01:23:11;32.85;;;23.17;;
60665;SDS011;59128;44.642;21.188;2023-03-11T01:25:37;49.33;;;31.45;;
60665;SDS011;59128;44.642;21.188;2023-03-11T01:28:03;54.30;;;35.35;;
60665;SDS011;59128;44.642;21.188;2023-03-11T01:30:30;35.17;;;25.60;;
60665;SDS011;59128;44.642;21.188;2023-03-11T01:32:56;34.10;;;23.60;;
60665;SDS011;59128;44.642;21.188;2023-03-11T01:35:23;37.05;;;25.83;;
60665;SDS011;59128;44.642;21.188;2023-03-11T01:37:49;30.80;;;22.83;;
60665;SDS011;59128;44.642;21.188;2023-03-11T01:40:24;40.30;;;28.73;;
60665;SDS011;59128;44.642;21.188;2023-03-11T01:42:51;44.45;;;32.78;;
60665;SDS011;59128;44.642;21.188;2023-03-11T01:47:49;41.00;;;31.60;;
60665;SDS011;59128;44.642;21.188;2023-03-11T01:50:15;44.72;;;33.35;;
60665;SDS011;59128;44.642;21.188;2023-03-11T01:52:41;39.67;;;29.77;;
60665;SDS011;59128;44.642;21.188;2023-03-11T01:55:08;36.92;;;27.42;;
60665;SDS011;59128;44.642;21.188;2023-03-11T01:57:34;37.05;;;28.38;;
60665;SDS011;59128;44.642;21.188;2023-03-11T02:00:03;34.72;;;24.40;;
60665;SDS011;59128;44.642;21.188;2023-03-11T02:02:35;28.45;;;21.20;;
60665;SDS011;59128;44.642;21.188;2023-03-11T02:05:05;31.80;;;22.60;;
60665;SDS011;59128;44.642;21.188;2023-03-11T02:07:31;26.55;;;20.83;;
60665;SDS011;59128;44.642;21.188;2023-03-11T02:09:57;29.77;;;20.98;;
60665;SDS011;59128;44.642;21.188;2023-03-11T02:12:23;27.17;;;20.75;;
60665;SDS011;59128;44.642;21.188;2023-03-11T02:14:50;39.30;;;23.80;;
60665;SDS011;59128;44.642;21.188;2023-03-11T02:17:17;31.05;;;21.58;;
60665;SDS011;59128;44.642;21.188;2023-03-11T02:19:56;24.20;;;19.42;;
60665;SDS011;59128;44.642;21.188;2023-03-11T02:22:24;24.33;;;19.10;;
60665;SDS011;59128;44.642;21.188;2023-03-11T02:27:21;25.58;;;18.27;;
60665;SDS011;59128;44.642;21.188;2023-03-11T02:29:47;24.70;;;19.27;;
60665;SDS011;59128;44.642;21.188;2023-03-11T02:32:14;28.40;;;20.45;;
60665;SDS011;59128;44.642;21.188;2023-03-11T02:34:40;28.98;;;21.38;;
60665;SDS011;59128;44.642;21.188;2023-03-11T02:37:07;26.75;;;19.92;;
60665;SDS011;59128;44.642;21.188;2023-03-11T02:39:35;25.52;;;19.13;;
60665;SDS011;59128;44.642;21.188;2023-03-11T02:42:06;26.00;;;18.17;;
60665;SDS011;59128;44.642;21.188;2023-03-11T02:44:33;20.55;;;16.10;;
60665;SDS011;59128;44.642;21.188;2023-03-11T02:46:59;23.40;;;17.13;;
60665;SDS011;59128;44.642;21.188;2023-03-11T02:49:25;21.63;;;16.05;;
60665;SDS011;59128;44.642;21.188;2023-03-11T02:51:51;22.35;;;17.80;;
60665;SDS011;59128;44.642;21.188;2023-03-11T02:54:17;22.25;;;18.05;;
60665;SDS011;59128;44.642;21.188;2023-03-11T02:56:43;24.77;;;18.77;;
60665;SDS011;59128;44.642;21.188;2023-03-11T02:59:09;25.55;;;19.55;;
60665;SDS011;59128;44.642;21.188;2023-03-11T03:01:35;25.70;;;18.88;;
60665;SDS011;59128;44.642;21.188;2023-03-11T03:04:01;22.48;;;18.05;;
60665;SDS011;59128;44.642;21.188;2023-03-11T03:06:27;20.98;;;16.58;;
60665;SDS011;59128;44.642;21.188;2023-03-11T03:08:54;20.27;;;16.48;;
60665;SDS011;59128;44.642;21.188;2023-03-11T03:11:20;19.55;;;15.70;;
60665;SDS011;59128;44.642;21.188;2023-03-11T03:13:46;19.52;;;14.93;;
60665;SDS011;59128;44.642;21.188;2023-03-11T03:16:12;16.55;;;13.70;;
60665;SDS011;59128;44.642;21.188;2023-03-11T03:18:38;16.38;;;13.95;;
60665;SDS011;59128;44.642;21.188;2023-03-11T03:21:04;20.20;;;14.40;;
60665;SDS011;59128;44.642;21.188;2023-03-11T03:23:30;18.40;;;14.13;;
60665;SDS011;59128;44.642;21.188;2023-03-11T03:26:01;17.45;;;13.98;;
60665;SDS011;59128;44.642;21.188;2023-03-11T03:28:27;16.75;;;13.18;;
60665;SDS011;59128;44.642;21.188;2023-03-11T03:30:53;16.45;;;12.63;;
60665;SDS011;59128;44.642;21.188;2023-03-11T03:33:19;15.95;;;12.55;;
60665;SDS011;59128;44.642;21.188;2023-03-11T03:35:45;16.58;;;12.68;;
60665;SDS011;59128;44.642;21.188;2023-03-11T03:38:11;16.77;;;12.25;;
60665;SDS011;59128;44.642;21.188;2023-03-11T03:40:38;14.95;;;13.20;;
60665;SDS011;59128;44.642;21.188;2023-03-11T03:43:04;18.55;;;13.73;;
60665;SDS011;59128;44.642;21.188;2023-03-11T03:45:30;17.10;;;13.18;;
60665;SDS011;59128;44.642;21.188;2023-03-11T03:47:56;14.85;;;12.88;;
60665;SDS011;59128;44.642;21.188;2023-03-11T03:50:22;14.88;;;12.52;;
60665;SDS011;59128;44.642;21.188;2023-03-11T03:52:48;13.75;;;11.02;;
60665;SDS011;59128;44.642;21.188;2023-03-11T03:55:14;13.57;;;10.65;;
60665;SDS011;59128;44.642;21.188;2023-03-11T03:57:40;13.32;;;11.30;;
60665;SDS011;59128;44.642;21.188;2023-03-11T04:00:06;15.25;;;11.90;;
60665;SDS011;59128;44.642;21.188;2023-03-11T04:02:33;14.48;;;11.50;;
60665;SDS011;59128;44.642;21.188;2023-03-11T04:04:59;13.75;;;10.40;;
60665;SDS011;59128;44.642;21.188;2023-03-11T04:07:25;16.33;;;12.15;;
60665;SDS011;59128;44.642;21.188;2023-03-11T04:09:51;16.13;;;12.23;;
60665;SDS011;59128;44.642;21.188;2023-03-11T04:12:17;16.85;;;13.07;;
60665;SDS011;59128;44.642;21.188;2023-03-11T04:14:43;15.35;;;12.05;;
60665;SDS011;59128;44.642;21.188;2023-03-11T04:17:10;12.63;;;10.80;;
60665;SDS011;59128;44.642;21.188;2023-03-11T04:19:36;12.13;;;10.20;;
60665;SDS011;59128;44.642;21.188;2023-03-11T04:22:03;13.07;;;10.77;;
60665;SDS011;59128;44.642;21.188;2023-03-11T04:24:29;13.75;;;10.40;;
60665;SDS011;59128;44.642;21.188;2023-03-11T04:26:55;15.63;;;11.45;;
60665;SDS011;59128;44.642;21.188;2023-03-11T04:29:21;16.65;;;11.15;;
60665;SDS011;59128;44.642;21.188;2023-03-11T04:31:47;12.75;;;10.50;;
60665;SDS011;59128;44.642;21.188;2023-03-11T04:34:13;11.10;;;8.57;;
60665;SDS011;59128;44.642;21.188;2023-03-11T04:36:39;8.73;;;7.47;;
60665;SDS011;59128;44.642;21.188;2023-03-11T04:39:05;7.55;;;6.18;;
60665;SDS011;59128;44.642;21.188;2023-03-11T04:41:31;7.57;;;5.60;;
60665;SDS011;59128;44.642;21.188;2023-03-11T04:44:00;5.95;;;5.35;;
60665;SDS011;59128;44.642;21.188;2023-03-11T04:46:26;5.78;;;4.38;;
60665;SDS011;59128;44.642;21.188;2023-03-11T04:48:52;6.72;;;5.03;;
60665;SDS011;59128;44.642;21.188;2023-03-11T04:51:18;6.18;;;4.50;;
60665;SDS011;59128;44.642;21.188;2023-03-11T04:53:44;5.70;;;4.38;;
60665;SDS011;59128;44.642;21.188;2023-03-11T04:56:10;4.43;;;4.03;;
60665;SDS011;59128;44.642;21.188;2023-03-11T04:58:36;5.60;;;3.65;;
60665;SDS011;59128;44.642;21.188;2023-03-11T05:01:02;6.18;;;4.47;;
60665;SDS011;59128;44.642;21.188;2023-03-11T05:03:28;4.45;;;3.60;;
60665;SDS011;59128;44.642;21.188;2023-03-11T05:05:54;5.53;;;4.22;;
60665;SDS011;59128;44.642;21.188;2023-03-11T05:08:24;4.30;;;3.70;;
60665;SDS011;59128;44.642;21.188;2023-03-11T05:10:50;5.60;;;3.72;;
60665;SDS011;59128;44.642;21.188;2023-03-11T05:13:19;4.57;;;4.07;;
60665;SDS011;59128;44.642;21.188;2023-03-11T05:15:46;3.95;;;3.55;;
60665;SDS011;59128;44.642;21.188;2023-03-11T05:18:12;4.32;;;3.47;;
60665;SDS011;59128;44.642;21.188;2023-03-11T05:20:38;4.38;;;3.90;;
60665;SDS011;59128;44.642;21.188;2023-03-11T05:23:04;4.93;;;3.25;;
60665;SDS011;59128;44.642;21.188;2023-03-11T05:25:30;4.13;;;3.40;;
60665;SDS011;59128;44.642;21.188;2023-03-11T05:27:56;4.18;;;3.22;;
60665;SDS011;59128;44.642;21.188;2023-03-11T05:30:23;3.90;;;3.50;;
60665;SDS011;59128;44.642;21.188;2023-03-11T05:32:49;3.78;;;3.22;;
60665;SDS011;59128;44.642;21.188;2023-03-11T05:35:15;4.90;;;3.47;;
60665;SDS011;59128;44.642;21.188;2023-03-11T05:37:41;5.97;;;3.97;;
60665;SDS011;59128;44.642;21.188;2023-03-11T05:40:08;7.60;;;5.63;;
60665;SDS011;59128;44.642;21.188;2023-03-11T05:42:34;11.52;;;8.98;;
60665;SDS011;59128;44.642;21.188;2023-03-11T05:45:00;14.70;;;9.38;;
60665;SDS011;59128;44.642;21.188;2023-03-11T05:47:26;12.98;;;9.30;;
60665;SDS011;59128;44.642;21.188;2023-03-11T05:49:52;20.15;;;15.18;;
60665;SDS011;59128;44.642;21.188;2023-03-11T05:52:18;9.80;;;8.23;;
60665;SDS011;59128;44.642;21.188;2023-03-11T05:54:47;37.17;;;25.20;;
60665;SDS011;59128;44.642;21.188;2023-03-11T05:57:14;30.65;;;20.83;;
60665;SDS011;59128;44.642;21.188;2023-03-11T05:59:40;41.10;;;27.27;;
60665;SDS011;59128;44.642;21.188;2023-03-11T06:02:06;44.45;;;29.27;;
60665;SDS011;59128;44.642;21.188;2023-03-11T06:04:32;26.30;;;17.75;;
60665;SDS011;59128;44.642;21.188;2023-03-11T06:06:58;31.05;;;19.73;;
60665;SDS011;59128;44.642;21.188;2023-03-11T06:09:24;62.63;;;40.83;;
60665;SDS011;59128;44.642;21.188;2023-03-11T06:11:50;40.95;;;27.08;;
60665;SDS011;59128;44.642;21.188;2023-03-11T06:14:16;27.13;;;18.80;;
60665;SDS011;59128;44.642;21.188;2023-03-11T06:16:42;24.15;;;17.77;;
60665;SDS011;59128;44.642;21.188;2023-03-11T06:19:08;21.98;;;14.95;;
60665;SDS011;59128;44.642;21.188;2023-03-11T06:21:34;16.98;;;14.40;;
60665;SDS011;59128;44.642;21.188;2023-03-11T06:24:00;28.58;;;21.58;;
60665;SDS011;59128;44.642;21.188;2023-03-11T06:26:26;33.88;;;25.38;;
60665;SDS011;59128;44.642;21.188;2023-03-11T06:28:52;29.08;;;23.13;;
60665;SDS011;59128;44.642;21.188;2023-03-11T06:31:27;23.92;;;17.10;;
60665;SDS011;59128;44.642;21.188;2023-03-11T06:33:53;20.20;;;16.33;;
60665;SDS011;59128;44.642;21.188;2023-03-11T06:36:20;18.48;;;14.55;;
60665;SDS011;59128;44.642;21.188;2023-03-11T06:38:46;19.92;;;14.02;;
60665;SDS011;59128;44.642;21.188;2023-03-11T06:41:14;14.77;;;12.15;;
60665;SDS011;59128;44.642;21.188;2023-03-11T06:43:40;13.00;;;8.93;;
60665;SDS011;59128;44.642;21.188;2023-03-11T06:46:07;12.88;;;9.63;;
60665;SDS011;59128;44.642;21.188;2023-03-11T06:48:33;12.45;;;9.45;;
60665;SDS011;59128;44.642;21.188;2023-03-11T06:50:59;10.77;;;7.88;;
60665;SDS011;59128;44.642;21.188;2023-03-11T06:53:26;9.50;;;7.07;;
60665;SDS011;59128;44.642;21.188;2023-03-11T06:55:59;9.20;;;6.15;;
60665;SDS011;59128;44.642;21.188;2023-03-11T06:58:26;7.47;;;6.57;;
60665;SDS011;59128;44.642;21.188;2023-03-11T07:00:52;7.30;;;6.25;;
60665;SDS011;59128;44.642;21.188;2023-03-11T07:03:18;7.55;;;5.88;;
60665;SDS011;59128;44.642;21.188;2023-03-11T07:05:44;10.40;;;8.43;;
60665;SDS011;59128;44.642;21.188;2023-03-11T07:08:10;15.48;;;11.68;;
60665;SDS011;59128;44.642;21.188;2023-03-11T07:10:36;25.50;;;19.33;;
60665;SDS011;59128;44.642;21.188;2023-03-11T07:13:02;21.42;;;15.95;;
60665;SDS011;59128;44.642;21.188;2023-03-11T07:15:28;19.60;;;14.75;;
60665;SDS011;59128;44.642;21.188;2023-03-11T07:17:54;24.27;;;14.80;;
60665;SDS011;59128;44.642;21.188;2023-03-11T07:20:20;21.88;;;15.27;;
60665;SDS011;59128;44.642;21.188;2023-03-11T07:22:46;24.33;;;19.75;;
60665;SDS011;59128;44.642;21.188;2023-03-11T07:25:12;13.55;;;10.60;;
60665;SDS011;59128;44.642;21.188;2023-03-11T07:27:38;13.63;;;10.18;;
60665;SDS011;59128;44.642;21.188;2023-03-11T07:30:05;9.93;;;7.97;;
60665;SDS011;59128;44.642;21.188;2023-03-11T07:32:31;10.63;;;8.23;;
60665;SDS011;59128;44.642;21.188;2023-03-11T07:34:57;6.85;;;5.72;;
60665;SDS011;59128;44.642;21.188;2023-03-11T07:37:23;6.43;;;5.70;;
60665;SDS011;59128;44.642;21.188;2023-03-11T07:39:49;5.97;;;5.20;;
60665;SDS011;59128;44.642;21.188;2023-03-11T07:42:15;4.57;;;3.92;;
60665;SDS011;59128;44.642;21.188;2023-03-11T07:44:41;3.22;;;2.60;;
60665;SDS011;59128;44.642;21.188;2023-03-11T07:47:07;2.75;;;2.50;;
60665;SDS011;59128;44.642;21.188;2023-03-11T07:49:33;2.92;;;2.63;;
60665;SDS011;59128;44.642;21.188;2023-03-11T07:51:59;3.55;;;2.67;;
60665;SDS011;59128;44.642;21.188;2023-03-11T07:54:25;2.80;;;2.50;;
60665;SDS011;59128;44.642;21.188;2023-03-11T07:56:51;3.35;;;2.83;;
60665;SDS011;59128;44.642;21.188;2023-03-11T07:59:17;4.13;;;2.90;;
60665;SDS011;59128;44.642;21.188;2023-03-11T08:01:43;4.65;;;3.80;;
60665;SDS011;59128;44.642;21.188;2023-03-11T08:04:11;4.32;;;3.22;;
60665;SDS011;59128;44.642;21.188;2023-03-11T08:06:38;3.08;;;2.67;;
60665;SDS011;59128;44.642;21.188;2023-03-11T08:09:06;3.83;;;2.70;;
60665;SDS011;59128;44.642;21.188;2023-03-11T08:11:33;4.75;;;3.72;;
60665;SDS011;59128;44.642;21.188;2023-03-11T08:13:59;4.75;;;3.83;;
60665;SDS011;59128;44.642;21.188;2023-03-11T08:16:25;4.82;;;3.97;;
60665;SDS011;59128;44.642;21.188;2023-03-11T08:18:51;4.53;;;3.92;;
60665;SDS011;59128;44.642;21.188;2023-03-11T08:21:19;5.28;;;3.05;;
60665;SDS011;59128;44.642;21.188;2023-03-11T08:23:46;3.58;;;2.83;;
60665;SDS011;59128;44.642;21.188;2023-03-11T08:26:13;3.40;;;2.83;;
60665;SDS011;59128;44.642;21.188;2023-03-11T08:28:39;4.22;;;3.83;;
60665;SDS011;59128;44.642;21.188;2023-03-11T08:34:02;3.58;;;2.67;;
60665;SDS011;59128;44.642;21.188;2023-03-11T08:36:28;4.13;;;2.70;;
60665;SDS011;59128;44.642;21.188;2023-03-11T08:38:54;3.92;;;2.78;;
60665;SDS011;59128;44.642;21.188;2023-03-11T08:41:20;5.32;;;4.50;;
60665;SDS011;59128;44.642;21.188;2023-03-11T08:43:46;4.90;;;2.80;;
60665;SDS011;59128;44.642;21.188;2023-03-11T08:46:14;2.53;;;2.08;;
60665;SDS011;59128;44.642;21.188;2023-03-11T08:48:42;3.85;;;2.63;;
60665;SDS011;59128;44.642;21.188;2023-03-11T08:51:09;5.35;;;3.05;;
60665;SDS011;59128;44.642;21.188;2023-03-11T08:53:35;4.07;;;3.05;;
60665;SDS011;59128;44.642;21.188;2023-03-11T08:56:01;2.30;;;1.85;;
60665;SDS011;59128;44.642;21.188;2023-03-11T08:58:27;4.35;;;2.45;;
60665;SDS011;59128;44.642;21.188;2023-03-11T09:00:54;3.88;;;2.38;;
60665;SDS011;59128;44.642;21.188;2023-03-11T09:03:20;2.25;;;1.48;;
60665;SDS011;59128;44.642;21.188;2023-03-11T09:05:46;4.05;;;1.63;;
60665;SDS011;59128;44.642;21.188;2023-03-11T09:08:12;3.97;;;1.88;;
60665;SDS011;59128;44.642;21.188;2023-03-11T09:10:38;3.65;;;1.33;;
60665;SDS011;59128;44.642;21.188;2023-03-11T09:13:04;4.97;;;1.63;;
60665;SDS011;59128;44.642;21.188;2023-03-11T09:15:30;3.00;;;1.50;;
60665;SDS011;59128;44.642;21.188;2023-03-11T09:17:57;4.07;;;1.80;;
60665;SDS011;59128;44.642;21.188;2023-03-11T09:20:23;4.28;;;1.85;;
60665;SDS011;59128;44.642;21.188;2023-03-11T09:22:49;3.63;;;1.48;;
60665;SDS011;59128;44.642;21.188;2023-03-11T09:25:15;4.05;;;2.10;;
60665;SDS011;59128;44.642;21.188;2023-03-11T09:27:41;1.75;;;0.98;;
60665;SDS011;59128;44.642;21.188;2023-03-11T09:30:08;3.53;;;1.58;;
60665;SDS011;59128;44.642;21.188;2023-03-11T09:32:34;5.90;;;1.70;;
60665;SDS011;59128;44.642;21.188;2023-03-11T09:35:00;4.37;;;1.60;;
60665;SDS011;59128;44.642;21.188;2023-03-11T09:37:26;4.60;;;1.30;;
60665;SDS011;59128;44.642;21.188;2023-03-11T09:39:54;5.70;;;1.38;;
60665;SDS011;59128;44.642;21.188;2023-03-11T09:44:59;5.18;;;1.50;;
60665;SDS011;59128;44.642;21.188;2023-03-11T09:50:17;7.67;;;2.13;;
60665;SDS011;59128;44.642;21.188;2023-03-11T09:52:46;7.60;;;2.55;;
60665;SDS011;59128;44.642;21.188;2023-03-11T09:58:02;10.95;;;1.35;;
60665;SDS011;59128;44.642;21.188;2023-03-11T10:00:29;7.03;;;1.40;;
60665;SDS011;59128;44.642;21.188;2023-03-11T10:02:55;8.32;;;1.80;;
60665;SDS011;59128;44.642;21.188;2023-03-11T10:05:25;9.27;;;1.60;;
60665;SDS011;59128;44.642;21.188;2023-03-11T10:08:00;5.70;;;1.65;;
60665;SDS011;59128;44.642;21.188;2023-03-11T10:10:29;11.35;;;1.65;;
60665;SDS011;59128;44.642;21.188;2023-03-11T10:13:12;9.40;;;1.90;;
60665;SDS011;59128;44.642;21.188;2023-03-11T10:15:44;7.90;;;2.00;;
60665;SDS011;59128;44.642;21.188;2023-03-11T10:23:39;8.93;;;2.63;;
60665;SDS011;59128;44.642;21.188;2023-03-11T10:28:39;9.38;;;1.80;;
60665;SDS011;59128;44.642;21.188;2023-03-11T10:36:18;4.75;;;1.45;;
60665;SDS011;59128;44.642;21.188;2023-03-11T10:38:48;4.15;;;1.15;;
60665;SDS011;59128;44.642;21.188;2023-03-11T10:44:05;4.43;;;1.08;;
60665;SDS011;59128;44.642;21.188;2023-03-11T10:46:31;8.07;;;1.77;;
60665;SDS011;59128;44.642;21.188;2023-03-11T10:48:57;8.97;;;2.10;;
60665;SDS011;59128;44.642;21.188;2023-03-11T10:51:45;6.20;;;1.40;;
60665;SDS011;59128;44.642;21.188;2023-03-11T10:54:10;6.88;;;1.70;;
60665;SDS011;59128;44.642;21.188;2023-03-11T10:56:44;11.32;;;2.40;;
60665;SDS011;59128;44.642;21.188;2023-03-11T10:59:25;5.97;;;1.85;;
60665;SDS011;59128;44.642;21.188;2023-03-11T11:01:59;5.30;;;1.67;;
60665;SDS011;59128;44.642;21.188;2023-03-11T11:04:29;8.40;;;1.60;;
60665;SDS011;59128;44.642;21.188;2023-03-11T11:06:57;6.35;;;1.73;;
60665;SDS011;59128;44.642;21.188;2023-03-11T11:09:43;7.57;;;1.90;;
60665;SDS011;59128;44.642;21.188;2023-03-11T11:12:13;6.03;;;2.00;;
60665;SDS011;59128;44.642;21.188;2023-03-11T11:14:41;6.45;;;1.50;;
60665;SDS011;59128;44.642;21.188;2023-03-11T11:17:14;6.32;;;1.80;;
60665;SDS011;59128;44.642;21.188;2023-03-11T11:19:42;7.88;;;2.20;;
60665;SDS011;59128;44.642;21.188;2023-03-11T11:22:09;11.05;;;2.85;;
60665;SDS011;59128;44.642;21.188;2023-03-11T11:24:42;7.50;;;2.30;;
60665;SDS011;59128;44.642;21.188;2023-03-11T11:29:35;5.10;;;1.77;;
60665;SDS011;59128;44.642;21.188;2023-03-11T11:34:41;5.30;;;1.63;;
60665;SDS011;59128;44.642;21.188;2023-03-11T11:37:10;8.17;;;2.20;;
60665;SDS011;59128;44.642;21.188;2023-03-11T11:39:44;5.82;;;1.92;;
60665;SDS011;59128;44.642;21.188;2023-03-11T11:42:15;5.88;;;2.10;;
60665;SDS011;59128;44.642;21.188;2023-03-11T11:44:42;5.78;;;1.73;;
60665;SDS011;59128;44.642;21.188;2023-03-11T11:47:12;5.93;;;1.47;;
60665;SDS011;59128;44.642;21.188;2023-03-11T11:49:43;4.95;;;1.30;;
60665;SDS011;59128;44.642;21.188;2023-03-11T11:52:13;9.50;;;1.70;;
60665;SDS011;59128;44.642;21.188;2023-03-11T11:54:55;5.65;;;1.67;;
60665;SDS011;59128;44.642;21.188;2023-03-11T11:57:23;5.70;;;1.43;;
60665;SDS011;59128;44.642;21.188;2023-03-11T11:59:49;4.10;;;0.93;;
60665;SDS011;59128;44.642;21.188;2023-03-11T12:13:01;2.10;;;0.60;;
60665;SDS011;59128;44.642;21.188;2023-03-11T12:15:38;4.55;;;0.70;;
60665;SDS011;59128;44.642;21.188;2023-03-11T12:18:09;3.55;;;1.08;;
60665;SDS011;59128;44.642;21.188;2023-03-11T12:20:39;3.78;;;1.10;;
60665;SDS011;59128;44.642;21.188;2023-03-11T12:23:19;4.57;;;1.00;;
60665;SDS011;59128;44.642;21.188;2023-03-11T12:30:57;4.75;;;1.10;;
60665;SDS011;59128;44.642;21.188;2023-03-11T12:33:31;3.22;;;1.30;;
60665;SDS011;59128;44.642;21.188;2023-03-11T12:35:58;3.60;;;1.13;;
60665;SDS011;59128;44.642;21.188;2023-03-11T12:38:46;3.47;;;0.63;;
60665;SDS011;59128;44.642;21.188;2023-03-11T12:46:06;4.72;;;2.40;;
60665;SDS011;59128;44.642;21.188;2023-03-11T12:50:59;12.50;;;7.55;;
60665;SDS011;59128;44.642;21.188;2023-03-11T12:53:40;11.73;;;7.63;;
60665;SDS011;59128;44.642;21.188;2023-03-11T12:58:36;10.77;;;7.35;;
60665;SDS011;59128;44.642;21.188;2023-03-11T13:01:16;9.35;;;6.97;;
60665;SDS011;59128;44.642;21.188;2023-03-11T13:04:00;11.32;;;6.45;;
60665;SDS011;59128;44.642;21.188;2023-03-11T13:09:02;13.03;;;8.27;;
60665;SDS011;59128;44.642;21.188;2023-03-11T13:16:40;2.42;;;0.70;;
60665;SDS011;59128;44.642;21.188;2023-03-11T13:21:54;6.13;;;0.98;;
60665;SDS011;59128;44.642;21.188;2023-03-11T13:42:48;4.20;;;1.30;;
60665;SDS011;59128;44.642;21.188;2023-03-11T13:45:37;6.93;;;1.73;;
60665;SDS011;59128;44.642;21.188;2023-03-11T13:48:03;5.55;;;1.70;;
60665;SDS011;59128;44.642;21.188;2023-03-11T13:50:31;6.13;;;1.10;;
60665;SDS011;59128;44.642;21.188;2023-03-11T13:52:59;4.13;;;0.80;;
60665;SDS011;59128;44.642;21.188;2023-03-11T13:55:39;3.05;;;0.90;;
60665;SDS011;59128;44.642;21.188;2023-03-11T13:58:16;4.38;;;1.40;;
60665;SDS011;59128;44.642;21.188;2023-03-11T14:00:48;2.85;;;1.27;;
60665;SDS011;59128;44.642;21.188;2023-03-11T14:03:15;3.08;;;1.02;;
60665;SDS011;59128;44.642;21.188;2023-03-11T14:05:46;3.63;;;1.30;;
60665;SDS011;59128;44.642;21.188;2023-03-11T14:10:50;4.73;;;1.67;;
60665;SDS011;59128;44.642;21.188;2023-03-11T14:13:17;4.18;;;2.17;;
60665;SDS011;59128;44.642;21.188;2023-03-11T14:16:03;5.40;;;1.90;;
60665;SDS011;59128;44.642;21.188;2023-03-11T14:18:34;5.13;;;2.03;;
60665;SDS011;59128;44.642;21.188;2023-03-11T14:21:02;7.35;;;3.90;;
60665;SDS011;59128;44.642;21.188;2023-03-11T14:23:38;4.45;;;2.30;;
60665;SDS011;59128;44.642;21.188;2023-03-11T14:26:06;4.70;;;2.00;;
60665;SDS011;59128;44.642;21.188;2023-03-11T14:28:33;7.47;;;2.40;;
60665;SDS011;59128;44.642;21.188;2023-03-11T14:31:01;7.05;;;2.25;;
60665;SDS011;59128;44.642;21.188;2023-03-11T14:33:28;6.55;;;2.25;;
60665;SDS011;59128;44.642;21.188;2023-03-11T14:35:58;5.57;;;2.13;;
60665;SDS011;59128;44.642;21.188;2023-03-11T14:38:28;6.63;;;2.58;;
60665;SDS011;59128;44.642;21.188;2023-03-11T14:40:56;4.43;;;2.00;;
60665;SDS011;59128;44.642;21.188;2023-03-11T14:43:23;6.38;;;2.25;;
60665;SDS011;59128;44.642;21.188;2023-03-11T14:45:50;4.53;;;2.00;;
60665;SDS011;59128;44.642;21.188;2023-03-11T14:48:24;4.28;;;2.00;;
60665;SDS011;59128;44.642;21.188;2023-03-11T14:50:53;4.93;;;2.33;;
60665;SDS011;59128;44.642;21.188;2023-03-11T14:53:25;2.97;;;2.03;;
60665;SDS011;59128;44.642;21.188;2023-03-11T14:55:58;4.13;;;1.88;;
60665;SDS011;59128;44.642;21.188;2023-03-11T14:58:29;4.72;;;1.80;;
60665;SDS011;59128;44.642;21.188;2023-03-11T15:03:22;4.25;;;1.92;;
60665;SDS011;59128;44.642;21.188;2023-03-11T15:05:53;5.50;;;2.00;;
60665;SDS011;59128;44.642;21.188;2023-03-11T15:08:21;4.82;;;2.38;;
60665;SDS011;59128;44.642;21.188;2023-03-11T15:13:29;4.15;;;2.47;;
60665;SDS011;59128;44.642;21.188;2023-03-11T15:15:59;6.18;;;2.80;;
60665;SDS011;59128;44.642;21.188;2023-03-11T15:18:35;6.10;;;3.03;;
60665;SDS011;59128;44.642;21.188;2023-03-11T15:21:12;4.15;;;2.28;;
60665;SDS011;59128;44.642;21.188;2023-03-11T15:23:43;4.18;;;2.47;;
60665;SDS011;59128;44.642;21.188;2023-03-11T15:26:16;5.90;;;2.50;;
60665;SDS011;59128;44.642;21.188;2023-03-11T15:28:43;4.35;;;2.17;;
60665;SDS011;59128;44.642;21.188;2023-03-11T15:31:13;5.75;;;2.50;;
60665;SDS011;59128;44.642;21.188;2023-03-11T15:33:39;4.05;;;2.35;;
60665;SDS011;59128;44.642;21.188;2023-03-11T15:36:24;4.00;;;2.00;;
60665;SDS011;59128;44.642;21.188;2023-03-11T15:41:35;5.07;;;2.30;;
60665;SDS011;59128;44.642;21.188;2023-03-11T15:44:01;4.35;;;2.17;;
60665;SDS011;59128;44.642;21.188;2023-03-11T15:46:31;4.28;;;2.45;;
60665;SDS011;59128;44.642;21.188;2023-03-11T15:48:57;3.87;;;2.50;;
60665;SDS011;59128;44.642;21.188;2023-03-11T15:51:23;7.53;;;3.08;;
60665;SDS011;59128;44.642;21.188;2023-03-11T15:53:49;6.22;;;3.10;;
60665;SDS011;59128;44.642;21.188;2023-03-11T15:56:18;6.28;;;3.65;;
60665;SDS011;59128;44.642;21.188;2023-03-11T15:58:46;7.17;;;4.17;;
60665;SDS011;59128;44.642;21.188;2023-03-11T16:01:12;7.68;;;4.20;;
60665;SDS011;59128;44.642;21.188;2023-03-11T16:03:38;8.27;;;4.30;;
60665;SDS011;59128;44.642;21.188;2023-03-11T16:06:04;5.50;;;4.00;;
60665;SDS011;59128;44.642;21.188;2023-03-11T16:08:30;7.07;;;3.85;;